createdAt,value
2018-04-14T06:40:27.556Z,10660.00
2018-04-14T06:40:53.400Z,10616.00
2018-04-14T06:41:53.404Z,10716.00
2018-04-14T06:42:53.408Z,10720.00
2018-04-14T06:43:53.419Z,10780.00
2018-04-14T06:46:30.662Z,11212.00
2018-04-14T06:47:24.977Z,11424.00
2018-04-14T06:48:24.979Z,11584.00
2018-04-14T06:49:24.984Z,11804.00
2018-04-14T06:51:56.704Z,12140.00
2018-04-14T06:52:56.565Z,12380.00
2018-04-14T06:53:56.554Z,12708.00
2018-04-14T06:54:56.557Z,13068.00
2018-04-14T06:56:01.761Z,13336.00
2018-04-14T06:56:57.393Z,13588.00
2018-04-14T06:57:56.567Z,13864.00
2018-04-14T06:58:56.568Z,14212.00
2018-04-14T06:59:56.575Z,14616.00
2018-04-14T07:01:07.260Z,15180.00
2018-04-14T07:01:56.581Z,15504.00
2018-04-14T07:02:56.580Z,15704.00
2018-04-14T07:03:56.593Z,16172.00
2018-04-14T07:04:56.641Z,16544.00
2018-04-14T07:15:06.531Z,19168.00
2018-04-14T12:58:50.502Z,27040.00
2018-04-14T12:59:22.031Z,34304.00
2018-04-14T13:00:22.038Z,103680.00
2018-04-14T13:26:07.021Z,43648.00
2018-04-14T13:26:48.983Z,26880.00
2018-04-14T13:27:48.952Z,31168.00
2018-04-14T13:28:48.957Z,102240.00
2018-04-14T13:37:48.136Z,25920.00
2018-04-14T13:38:27.097Z,25344.00
2018-04-14T13:39:27.106Z,24448.00
2018-04-14T13:40:51.204Z,24576.00
2018-04-14T13:41:27.125Z,25120.00
2018-04-14T13:42:27.133Z,26624.00
2018-04-14T13:43:27.654Z,27392.00
2018-04-14T13:44:27.148Z,30880.00
2018-04-14T13:51:45.726Z,70784.00
2018-04-14T13:52:35.100Z,61248.00
2018-04-14T13:53:35.110Z,31072.00
2018-04-14T14:14:38.655Z,19264.00
2018-04-14T14:15:27.478Z,17664.00
2018-04-14T14:16:26.561Z,16740.00
2018-04-14T14:17:26.571Z,16776.00
2018-04-14T14:18:26.583Z,17312.00
2018-04-14T14:19:26.591Z,18304.00
2018-04-14T14:33:02.383Z,76352.00
2018-04-14T14:33:39.958Z,32736.00
2018-04-14T14:34:39.779Z,83200.00
2018-04-14T14:35:39.831Z,83424.00
2018-04-14T14:36:39.800Z,83168.00
2018-04-14T14:37:39.817Z,82528.00
2018-04-14T14:38:39.817Z,27904.00
2018-04-14T14:39:50.381Z,72864.00
2018-04-14T14:40:39.837Z,81024.00
2018-04-14T14:41:39.847Z,46208.00
2018-04-14T14:42:39.888Z,81696.00
2018-04-14T14:43:39.865Z,82336.00
2018-04-14T14:52:52.212Z,17424.00
2018-04-14T14:53:18.090Z,19520.00
2018-04-14T14:54:39.154Z,21920.00
2018-04-14T14:55:18.115Z,27488.00
2018-04-14T14:56:18.134Z,67968.00
2018-04-14T14:57:18.181Z,47936.00
2018-04-14T14:58:18.148Z,23488.00
2018-04-14T14:59:18.160Z,18464.00
2018-04-14T15:06:25.354Z,55552.00
2018-04-14T15:07:25.157Z,60256.00
2018-04-14T15:08:25.172Z,62464.00
2018-04-14T15:09:25.241Z,59616.00
2018-04-14T15:10:25.189Z,52256.00
2018-04-14T15:11:25.241Z,57536.00
2018-04-14T15:12:25.207Z,41152.00
2018-04-14T15:13:25.218Z,33696.00
2018-04-14T15:14:25.272Z,36032.00
2018-04-14T15:15:25.234Z,27872.00
2018-04-14T15:16:25.243Z,32320.00
2018-04-14T15:17:26.017Z,30976.00
2018-04-14T15:18:25.259Z,25472.00
2018-04-14T15:22:34.603Z,29760.00
2018-04-14T15:29:58.151Z,31264.00
2018-04-14T15:30:35.535Z,25376.00
2018-04-14T15:31:35.541Z,19008.00
2018-04-14T15:32:35.548Z,17012.00
2018-04-14T15:35:29.290Z,15112.00
2018-04-14T15:36:07.211Z,14164.00
2018-04-14T15:37:07.215Z,13892.00
2018-04-14T15:38:07.225Z,13776.00
2018-04-14T15:42:31.644Z,13376.00
2018-04-14T15:43:10.531Z,13548.00
2018-04-14T15:44:10.538Z,13820.00
2018-04-14T15:45:10.539Z,14268.00
2018-04-14T15:46:10.552Z,14932.00
2018-04-14T15:47:10.557Z,15640.00
2018-04-14T15:48:15.633Z,16208.00
2018-04-14T15:49:11.553Z,16680.00
2018-04-14T15:50:11.508Z,16852.00
2018-04-14T15:51:10.578Z,17536.00
2018-04-14T15:52:10.591Z,19712.00
2018-04-14T15:54:42.294Z,22944.00
2018-04-14T15:55:42.248Z,26976.00
2018-04-14T15:56:42.262Z,33120.00
2018-04-14T15:57:42.258Z,41952.00
2018-04-14T15:58:42.310Z,41536.00
2018-04-14T15:59:42.274Z,43616.00
2018-04-14T16:00:42.285Z,42336.00
2018-04-14T16:01:42.287Z,41408.00
2018-04-14T16:02:42.855Z,39392.00
2018-04-14T16:03:44.725Z,39808.00
2018-04-14T16:04:42.306Z,37568.00
2018-04-14T16:05:42.303Z,36448.00
2018-04-14T16:06:42.322Z,36064.00
2018-04-14T16:10:58.741Z,37408.00
2018-04-14T16:11:45.633Z,35616.00
2018-04-14T16:12:45.680Z,33664.00
2018-04-14T16:13:45.647Z,32672.00
2018-04-14T16:14:45.649Z,31456.00
2018-04-14T16:15:45.663Z,31008.00
2018-04-14T16:16:45.666Z,32160.00
2018-04-14T16:17:50.738Z,31264.00
2018-04-14T16:18:45.681Z,30080.00
2018-04-14T16:19:45.687Z,29152.00
2018-04-14T16:20:45.695Z,27840.00
2018-04-14T16:21:45.707Z,27520.00
2018-04-14T16:22:45.763Z,25632.00
2018-04-14T16:23:45.723Z,24000.00
2018-04-14T16:24:45.730Z,22432.00
2018-04-14T16:25:45.740Z,21568.00
2018-04-14T16:26:45.748Z,20576.00
2018-04-14T16:27:46.248Z,19840.00
2018-04-14T16:28:45.762Z,18368.00
2018-04-14T16:29:45.772Z,17856.00
2018-04-14T16:30:45.857Z,19136.00
2018-04-14T16:31:45.790Z,22560.00
2018-04-14T16:32:45.838Z,23808.00
2018-04-14T16:33:45.811Z,18272.00
2018-04-14T16:34:45.811Z,14060.00
2018-04-14T16:35:45.831Z,13156.00
2018-04-14T16:36:45.830Z,12660.00
2018-04-14T16:37:45.919Z,12608.00
2018-04-14T16:38:45.843Z,12948.00
2018-04-14T16:39:45.858Z,13000.00
2018-04-14T16:40:45.887Z,13004.00
2018-04-14T16:41:45.871Z,13236.00
2018-04-14T16:42:45.881Z,12688.00
2018-04-14T16:43:45.962Z,12384.00
2018-04-14T16:44:45.900Z,11976.00
2018-04-14T16:45:45.903Z,11404.00
2018-04-14T16:46:45.914Z,11336.00
2018-04-14T16:47:45.922Z,10812.00
2018-04-14T16:48:46.015Z,10684.00
2018-04-14T16:49:45.933Z,10424.00
2018-04-14T16:50:45.944Z,10416.00
2018-04-14T16:51:45.956Z,10024.00
2018-04-14T16:52:45.965Z,9376.00
2018-04-14T16:54:00.249Z,8944.00
2018-04-14T16:54:45.976Z,8428.00
2018-04-14T16:55:45.984Z,8032.00
2018-04-14T16:56:45.990Z,7296.00
2018-04-14T16:57:46.002Z,6768.00
2018-04-14T16:58:46.054Z,6492.00
2018-04-14T16:59:46.884Z,6244.00
2018-04-14T17:00:46.020Z,6068.00
2018-04-14T17:01:46.027Z,5936.00
2018-04-14T17:02:46.199Z,5832.00
2018-04-14T17:03:46.045Z,5724.00
2018-04-14T17:04:46.053Z,5600.00
2018-04-14T17:05:46.055Z,5516.00
2018-04-14T17:06:46.071Z,5452.00
2018-04-14T17:07:46.067Z,5364.00
2018-04-14T17:08:46.119Z,5288.00
2018-04-14T17:09:46.079Z,5204.00
2018-04-14T17:10:46.088Z,5088.00
2018-04-14T17:11:46.092Z,4980.00
2018-04-14T17:12:46.100Z,4872.00
2018-04-14T17:13:47.755Z,4768.00
2018-04-14T17:14:46.109Z,4640.00
2018-04-14T17:15:46.120Z,4516.00
2018-04-14T17:16:46.119Z,4380.00
2018-04-14T17:17:46.129Z,4232.00
2018-04-14T17:18:47.774Z,4088.00
2018-04-14T17:19:46.134Z,3944.00
2018-04-14T17:20:46.140Z,3820.00
2018-04-14T17:21:46.139Z,3708.00
2018-04-14T17:22:46.151Z,3608.00
2018-04-14T17:23:46.771Z,3500.00
2018-04-14T17:24:46.161Z,3392.00
2018-04-14T17:25:46.165Z,3276.00
2018-04-14T17:26:46.168Z,3156.00
2018-04-14T17:27:46.174Z,3040.00
2018-04-14T17:28:46.226Z,2936.00
2018-04-14T17:29:46.180Z,2844.00
2018-04-14T17:30:46.518Z,2760.00
2018-04-14T17:31:46.190Z,2684.00
2018-04-14T17:32:46.201Z,2600.00
2018-04-14T17:33:51.262Z,2520.00
2018-04-14T17:34:46.207Z,2424.00
2018-04-14T17:35:46.211Z,2332.00
2018-04-14T17:36:46.215Z,2240.00
2018-04-14T17:37:46.277Z,2152.00
2018-04-14T17:38:46.223Z,2064.00
2018-04-14T17:39:46.229Z,1984.00
2018-04-14T17:40:46.231Z,1904.00
2018-04-14T17:41:46.232Z,1824.00
2018-04-14T17:42:46.244Z,1752.00
2018-04-14T17:43:46.294Z,1672.00
2018-04-14T17:44:46.246Z,1600.00
2018-04-14T17:45:46.249Z,1516.00
2018-04-14T17:46:46.253Z,1432.00
2018-04-14T17:47:47.301Z,1352.00
2018-04-14T17:48:46.264Z,1268.00
2018-04-14T17:49:46.262Z,1188.00
2018-04-14T17:50:46.378Z,1112.00
2018-04-14T17:51:46.273Z,1044.00
2018-04-14T17:52:46.347Z,976.00
2018-04-14T17:53:46.275Z,912.00
2018-04-14T17:54:46.275Z,856.00
2018-04-14T17:55:46.832Z,800.00
2018-04-14T17:56:46.292Z,740.00
2018-04-14T17:58:07.767Z,692.00
2018-04-14T17:58:46.300Z,640.00
2018-04-14T17:59:46.303Z,588.00
2018-04-14T18:00:46.301Z,544.00
2018-04-14T18:01:46.302Z,496.00
2018-04-14T18:02:46.763Z,456.00
2018-04-14T18:03:46.307Z,416.00
2018-04-14T18:04:46.317Z,384.00
2018-04-14T18:05:46.311Z,352.00
2018-04-14T18:06:46.312Z,320.00
2018-04-14T18:07:46.377Z,292.00
2018-04-14T18:08:46.319Z,268.00
2018-04-14T18:09:46.321Z,244.00
2018-04-14T18:10:47.031Z,220.00
2018-04-14T18:11:46.324Z,196.00
2018-04-14T18:12:46.413Z,176.00
2018-04-14T18:13:46.330Z,156.00
2018-04-14T18:14:46.333Z,136.00
2018-04-14T18:15:46.334Z,124.00
2018-04-14T18:16:46.334Z,108.00
2018-04-14T18:17:46.482Z,92.00
2018-04-14T18:18:46.336Z,84.00
2018-04-14T18:19:46.342Z,72.00
2018-04-14T18:20:46.343Z,60.00
2018-04-14T18:21:46.344Z,56.00
2018-04-14T18:22:47.313Z,44.00
2018-04-14T18:23:46.352Z,40.00
2018-04-14T18:24:46.351Z,32.00
2018-04-14T18:25:46.350Z,28.00
2018-04-14T18:26:46.351Z,20.00
2018-04-14T18:27:46.409Z,20.00
2018-04-14T18:28:46.356Z,16.00
2018-04-14T18:29:46.354Z,12.00
2018-04-14T18:30:46.552Z,12.00
2018-04-14T18:31:46.359Z,12.00
2018-04-14T18:32:46.440Z,8.00
2018-04-14T18:33:46.362Z,8.00
2018-04-14T18:34:46.362Z,4.00
2018-04-14T18:35:46.361Z,4.00
2018-04-14T18:36:46.368Z,4.00
2018-04-14T18:37:46.422Z,0.00
2018-04-14T18:38:46.368Z,4.00
2018-04-14T18:39:46.368Z,4.00
2018-04-14T18:40:46.374Z,4.00
2018-04-14T18:41:46.373Z,0.00
2018-04-14T18:42:46.785Z,0.00
2018-04-14T18:43:46.373Z,0.00
2018-04-14T18:44:46.377Z,0.00
2018-04-14T18:45:46.377Z,0.00
2018-04-14T18:46:46.377Z,0.00
2018-04-14T18:47:49.899Z,0.00
2018-04-14T18:48:46.383Z,0.00
2018-04-14T18:49:46.382Z,0.00
2018-04-14T18:50:46.379Z,0.00
2018-04-14T18:51:46.386Z,0.00
2018-04-14T18:52:57.273Z,0.00
2018-04-14T18:53:46.934Z,0.00
2018-04-14T18:54:46.396Z,0.00
2018-04-14T18:55:46.388Z,0.00
2018-04-14T18:56:46.391Z,0.00
2018-04-14T18:57:46.556Z,0.00
2018-04-14T18:58:46.391Z,0.00
2018-04-14T18:59:46.391Z,0.00
2018-04-14T19:00:46.391Z,0.00
2018-04-14T19:01:46.402Z,0.00
2018-04-14T19:02:46.392Z,0.00
2018-04-14T19:03:46.769Z,0.00
2018-04-14T19:04:47.253Z,0.00
2018-04-14T19:05:47.142Z,0.00
2018-04-14T19:06:46.401Z,0.00
2018-04-14T19:07:46.448Z,0.00
2018-04-14T19:08:46.397Z,0.00
2018-04-14T19:09:46.400Z,0.00
2018-04-14T19:10:46.400Z,0.00
2018-04-14T19:11:46.401Z,0.00
2018-04-14T19:13:00.773Z,0.00
2018-04-14T19:13:46.400Z,0.00
2018-04-14T19:14:46.407Z,0.00
2018-04-14T19:15:46.402Z,0.00
2018-04-14T19:16:46.406Z,0.00
2018-04-14T19:17:46.453Z,0.00
2018-04-14T19:18:46.406Z,0.00
2018-04-14T19:19:46.404Z,0.00
2018-04-14T19:20:46.406Z,0.00
2018-04-14T19:21:46.409Z,0.00
2018-04-14T19:22:46.459Z,0.00
2018-04-14T19:23:46.408Z,0.00
2018-04-14T19:24:46.408Z,0.00
2018-04-14T19:25:46.410Z,0.00
2018-04-14T19:26:46.408Z,0.00
2018-04-14T19:27:46.780Z,0.00
2018-04-14T19:28:46.408Z,0.00
2018-04-14T19:29:46.408Z,0.00
2018-04-14T19:30:46.412Z,0.00
2018-04-14T19:31:46.413Z,0.00
2018-04-14T19:32:46.467Z,0.00
2018-04-14T19:33:46.415Z,0.00
2018-04-14T19:34:46.425Z,0.00
2018-04-14T19:35:46.417Z,0.00
2018-04-14T19:36:46.414Z,0.00
2018-04-14T19:37:46.668Z,0.00
2018-04-14T19:38:46.416Z,0.00
2018-04-14T19:39:46.418Z,0.00
2018-04-14T19:40:46.418Z,0.00
2018-04-14T19:41:47.212Z,0.00
2018-04-14T19:42:46.422Z,0.00
2018-04-14T19:43:46.428Z,0.00
2018-04-14T19:44:46.420Z,0.00
2018-04-14T19:45:46.418Z,0.00
2018-04-14T19:46:54.271Z,0.00
2018-04-14T19:47:46.422Z,0.00
2018-04-14T19:48:46.435Z,0.00
2018-04-14T19:49:46.443Z,0.00
2018-04-14T19:50:46.424Z,0.00
2018-04-14T19:51:46.831Z,0.00
2018-04-14T19:52:46.424Z,0.00
2018-04-14T19:53:46.424Z,0.00
2018-04-14T19:54:46.426Z,0.00
2018-04-14T19:55:46.425Z,0.00
2018-04-14T19:56:46.547Z,0.00
2018-04-14T19:57:46.431Z,0.00
2018-04-14T19:58:46.429Z,0.00
2018-04-14T19:59:46.965Z,0.00
2018-04-14T20:00:46.445Z,0.00
2018-04-14T20:01:46.489Z,0.00
2018-04-14T20:02:46.830Z,0.00
2018-04-14T20:03:46.431Z,0.00
2018-04-14T20:04:46.434Z,0.00
2018-04-14T20:05:46.437Z,0.00
2018-04-14T20:06:46.810Z,0.00
2018-04-14T20:07:46.439Z,0.00
2018-04-14T20:08:46.434Z,0.00
2018-04-14T20:09:46.438Z,0.00
2018-04-14T20:10:46.438Z,0.00
2018-04-14T20:11:46.777Z,0.00
2018-04-14T20:12:46.441Z,0.00
2018-04-14T20:13:46.442Z,0.00
2018-04-14T20:14:46.438Z,0.00
2018-04-14T20:15:46.443Z,0.00
2018-04-14T20:16:51.779Z,0.00
2018-04-14T20:17:46.445Z,0.00
2018-04-14T20:18:46.444Z,0.00
2018-04-14T20:19:46.442Z,0.00
2018-04-14T20:20:46.442Z,0.00
2018-04-14T20:21:46.531Z,0.00
2018-04-14T20:22:46.443Z,0.00
2018-04-14T20:23:46.451Z,0.00
2018-04-14T20:24:46.438Z,0.00
2018-04-14T20:25:46.448Z,0.00
2018-04-14T20:26:46.517Z,0.00
2018-04-14T20:27:46.446Z,0.00
2018-04-14T20:28:46.443Z,0.00
2018-04-14T20:29:46.449Z,0.00
2018-04-14T20:30:46.506Z,0.00
2018-04-14T20:31:46.532Z,0.00
2018-04-14T20:32:46.448Z,0.00
2018-04-14T20:33:46.449Z,0.00
2018-04-14T20:34:46.449Z,0.00
2018-04-14T20:35:46.446Z,0.00
2018-04-14T20:36:46.505Z,0.00
2018-04-14T20:37:46.452Z,0.00
2018-04-14T20:38:46.437Z,0.00
2018-04-14T20:39:46.445Z,0.00
2018-04-14T20:40:46.446Z,0.00
2018-04-14T20:41:46.445Z,0.00
2018-04-14T20:42:47.316Z,0.00
2018-04-14T20:43:46.634Z,0.00
2018-04-14T20:44:46.445Z,0.00
2018-04-14T20:45:46.445Z,0.00
2018-04-14T20:46:46.496Z,0.00
2018-04-14T20:47:48.290Z,0.00
2018-04-14T20:48:47.347Z,0.00
2018-04-14T20:49:46.446Z,0.00
2018-04-14T20:50:46.445Z,0.00
2018-04-14T20:51:46.449Z,0.00
2018-04-14T20:52:46.533Z,0.00
2018-04-14T20:53:46.442Z,0.00
2018-04-14T20:54:46.451Z,0.00
2018-04-14T20:55:46.442Z,0.00
2018-04-14T20:56:46.448Z,0.00
2018-04-14T20:57:46.507Z,0.00
2018-04-14T20:58:46.448Z,0.00
2018-04-14T20:59:46.440Z,0.00
2018-04-14T21:00:46.444Z,0.00
2018-04-14T21:01:46.435Z,0.00
2018-04-14T21:02:46.447Z,0.00
2018-04-14T21:04:12.783Z,0.00
2018-04-14T21:04:46.445Z,0.00
2018-04-14T21:05:46.439Z,0.00
2018-04-14T21:06:46.440Z,0.00
2018-04-14T21:07:46.441Z,0.00
2018-04-14T21:08:47.277Z,0.00
2018-04-14T21:09:46.441Z,0.00
2018-04-14T21:10:46.440Z,0.00
2018-04-14T21:11:46.435Z,0.00
2018-04-14T21:12:46.438Z,0.00
2018-04-14T21:13:46.480Z,0.00
2018-04-14T21:14:46.437Z,0.00
2018-04-14T21:15:46.436Z,0.00
2018-04-14T21:16:46.434Z,0.00
2018-04-14T21:17:46.436Z,0.00
2018-04-14T21:18:46.771Z,0.00
2018-04-14T21:19:46.470Z,0.00
2018-04-14T21:20:46.438Z,0.00
2018-04-14T21:21:46.431Z,0.00
2018-04-14T21:22:46.434Z,0.00
2018-04-14T21:23:46.560Z,0.00
2018-04-14T21:24:46.430Z,0.00
2018-04-14T21:25:46.434Z,0.00
2018-04-14T21:26:46.451Z,0.00
2018-04-14T21:27:46.429Z,0.00
2018-04-14T21:28:46.433Z,0.00
2018-04-14T21:29:46.497Z,0.00
2018-04-14T21:30:46.433Z,0.00
2018-04-14T21:31:46.430Z,0.00
2018-04-14T21:32:46.430Z,0.00
2018-04-14T21:33:46.428Z,0.00
2018-04-14T21:34:49.782Z,0.00
2018-04-14T21:35:46.428Z,0.00
2018-04-14T21:36:46.424Z,0.00
2018-04-14T21:37:46.430Z,0.00
2018-04-14T21:38:46.427Z,0.00
2018-04-14T21:39:46.427Z,0.00
2018-04-14T21:40:46.479Z,0.00
2018-04-14T21:41:46.423Z,0.00
2018-04-14T21:42:46.424Z,0.00
2018-04-14T21:43:46.421Z,0.00
2018-04-14T21:44:46.422Z,0.00
2018-04-14T21:45:46.778Z,0.00
2018-04-14T21:46:46.420Z,0.00
2018-04-14T21:47:46.416Z,0.00
2018-04-14T21:48:46.417Z,0.00
2018-04-14T21:49:46.421Z,0.00
2018-04-14T21:50:46.773Z,0.00
2018-04-14T21:51:46.418Z,0.00
2018-04-14T21:52:46.415Z,0.00
2018-04-14T21:53:46.415Z,0.00
2018-04-14T21:54:46.421Z,0.00
2018-04-14T21:55:46.463Z,0.00
2018-04-14T21:56:46.417Z,0.00
2018-04-14T21:57:46.411Z,0.00
2018-04-14T21:58:46.410Z,0.00
2018-04-14T21:59:46.413Z,0.00
2018-04-14T22:00:47.277Z,0.00
2018-04-14T22:01:46.409Z,0.00
2018-04-14T22:02:46.411Z,0.00
2018-04-14T22:03:46.405Z,0.00
2018-04-14T22:04:46.405Z,0.00
2018-04-14T22:05:57.285Z,0.00
2018-04-14T22:06:46.405Z,0.00
2018-04-14T22:07:46.405Z,0.00
2018-04-14T22:08:47.163Z,0.00
2018-04-14T22:09:46.402Z,0.00
2018-04-14T22:10:46.773Z,0.00
2018-04-14T22:11:46.399Z,0.00
2018-04-14T22:12:46.469Z,0.00
2018-04-14T22:13:46.399Z,0.00
2018-04-14T22:14:46.399Z,0.00
2018-04-14T22:16:04.784Z,0.00
2018-04-14T22:16:46.394Z,0.00
2018-04-14T22:17:46.396Z,0.00
2018-04-14T22:18:46.393Z,0.00
2018-04-14T22:19:46.388Z,0.00
2018-04-14T22:20:46.392Z,0.00
2018-04-14T22:21:48.288Z,0.00
2018-04-14T22:22:46.392Z,0.00
2018-04-14T22:23:46.388Z,0.00
2018-04-14T22:24:46.388Z,0.00
2018-04-14T22:25:47.280Z,0.00
2018-04-14T22:26:46.394Z,0.00
2018-04-14T22:27:46.832Z,0.00
2018-04-14T22:28:46.387Z,0.00
2018-04-14T22:29:46.383Z,0.00
2018-04-14T22:31:12.844Z,0.00
2018-04-14T22:31:46.381Z,0.00
2018-04-14T22:32:46.379Z,0.00
2018-04-14T22:33:46.377Z,0.00
2018-04-14T22:34:46.374Z,0.00
2018-04-14T22:35:46.374Z,0.00
2018-04-14T22:37:08.285Z,0.00
2018-04-14T22:37:46.374Z,0.00
2018-04-14T22:38:46.370Z,0.00
2018-04-14T22:39:46.373Z,0.00
2018-04-14T22:40:46.376Z,0.00
2018-04-14T22:41:46.776Z,0.00
2018-04-14T22:42:46.365Z,0.00
2018-04-14T22:43:46.366Z,0.00
2018-04-14T22:44:46.362Z,0.00
2018-04-14T22:45:46.786Z,0.00
2018-04-14T22:46:46.358Z,0.00
2018-04-14T22:47:46.358Z,0.00
2018-04-14T22:48:46.358Z,0.00
2018-04-14T22:49:46.355Z,0.00
2018-04-14T22:51:07.785Z,0.00
2018-04-14T22:51:46.351Z,0.00
2018-04-14T22:52:46.789Z,0.00
2018-04-14T22:53:46.351Z,0.00
2018-04-14T22:54:46.346Z,0.00
2018-04-14T22:57:24.603Z,0.00
2018-04-14T22:58:17.967Z,0.00
2018-04-14T22:59:17.962Z,0.00
2018-04-14T23:00:18.004Z,0.00
2018-04-14T23:01:17.961Z,0.00
2018-04-14T23:02:18.772Z,0.00
2018-04-14T23:03:17.953Z,0.00
2018-04-14T23:04:17.957Z,0.00
2018-04-14T23:05:18.615Z,0.00
2018-04-14T23:06:17.952Z,0.00
2018-04-14T23:07:17.953Z,0.00
2018-04-14T23:08:17.953Z,0.00
2018-04-14T23:09:17.958Z,0.00
2018-04-14T23:10:32.102Z,0.00
2018-04-14T23:11:17.944Z,0.00
2018-04-14T23:12:17.953Z,0.00
2018-04-14T23:13:17.942Z,0.00
2018-04-14T23:14:17.940Z,0.00
2018-04-14T23:15:19.609Z,0.00
2018-04-14T23:16:17.933Z,0.00
2018-04-14T23:17:17.941Z,0.00
2018-04-14T23:18:17.935Z,0.00
2018-04-14T23:19:17.985Z,0.00
2018-04-14T23:20:18.600Z,0.00
2018-04-14T23:21:17.929Z,0.00
2018-04-14T23:22:17.930Z,0.00
2018-04-14T23:23:17.929Z,0.00
2018-04-14T23:24:17.926Z,0.00
2018-04-14T23:25:57.101Z,0.00
2018-04-14T23:26:17.913Z,0.00
2018-04-14T23:27:17.921Z,0.00
2018-04-14T23:28:17.917Z,0.00
2018-04-14T23:29:17.917Z,0.00
2018-04-14T23:31:49.565Z,0.00
2018-04-14T23:32:49.521Z,0.00
2018-04-14T23:33:50.032Z,0.00
2018-04-14T23:34:49.517Z,0.00
2018-04-14T23:35:49.560Z,0.00
2018-04-14T23:36:49.508Z,0.00
2018-04-14T23:37:49.505Z,0.00
2018-04-14T23:38:49.504Z,0.00
2018-04-14T23:39:49.505Z,0.00
2018-04-14T23:40:50.165Z,0.00
2018-04-14T23:41:49.502Z,0.00
2018-04-14T23:42:50.096Z,0.00
2018-04-14T23:43:49.498Z,0.00
2018-04-14T23:44:49.497Z,0.00
2018-04-14T23:45:49.493Z,0.00
2018-04-14T23:47:12.185Z,0.00
2018-04-14T23:47:49.493Z,0.00
2018-04-14T23:48:49.497Z,0.00
2018-04-14T23:49:49.489Z,0.00
2018-04-14T23:50:49.485Z,0.00
2018-04-14T23:51:54.730Z,0.00
2018-04-14T23:52:49.486Z,0.00
2018-04-14T23:53:49.485Z,0.00
2018-04-14T23:54:49.491Z,0.00
2018-04-14T23:55:49.478Z,0.00
2018-04-14T23:58:21.727Z,0.00
2018-04-14T23:59:21.121Z,0.00
